createdAt,value
2018-12-07T00:01:29.659Z,76.40
2018-12-07T00:03:57.902Z,77.46
2018-12-07T00:06:26.308Z,80.11
2018-12-07T00:08:54.420Z,78.32
2018-12-07T00:11:23.255Z,75.11
2018-12-07T00:13:51.862Z,74.96
2018-12-07T00:16:20.074Z,79.82
2018-12-07T00:18:48.036Z,81.90
2018-12-07T00:21:16.029Z,78.45
2018-12-07T00:23:44.043Z,79.18
2018-12-07T00:26:11.966Z,80.29
2018-12-07T00:28:39.963Z,80.19
2018-12-07T00:31:07.978Z,80.71
2018-12-07T00:33:36.035Z,79.94
2018-12-07T00:36:03.957Z,80.37
2018-12-07T00:38:31.943Z,75.90
2018-12-07T00:40:59.990Z,76.99
2018-12-07T00:43:27.913Z,77.26
2018-12-07T00:45:56.054Z,73.34
2018-12-07T00:48:24.127Z,74.11
2018-12-07T00:50:52.231Z,74.76
2018-12-07T00:53:20.369Z,73.67
2018-12-07T00:55:48.999Z,73.63
2018-12-07T00:58:17.152Z,73.01
2018-12-07T01:00:45.637Z,76.25
2018-12-07T01:03:13.707Z,74.04
2018-12-07T01:05:41.839Z,74.99
2018-12-07T01:08:09.992Z,75.51
2018-12-07T01:10:38.083Z,74.72
2018-12-07T01:13:06.137Z,73.53
2018-12-07T01:15:34.016Z,73.08
2018-12-07T01:18:02.100Z,76.59
2018-12-07T01:20:30.065Z,79.60
2018-12-07T01:22:59.239Z,74.57
2018-12-07T01:25:27.449Z,78.50
2018-12-07T01:27:55.586Z,77.83
2018-12-07T01:30:23.777Z,76.92
2018-12-07T01:32:52.476Z,81.34
2018-12-07T01:35:20.537Z,82.39
2018-12-07T01:37:55.098Z,76.86
2018-12-07T01:40:23.329Z,82.31
2018-12-07T01:42:51.343Z,84.11
2018-12-07T01:45:19.983Z,84.30
2018-12-07T01:47:47.988Z,88.36
2018-12-07T01:50:16.796Z,88.34
2018-12-07T01:52:44.829Z,86.40
2018-12-07T01:55:12.920Z,80.58
2018-12-07T01:57:41.558Z,77.53
2018-12-07T02:00:09.963Z,78.98
2018-12-07T02:02:39.093Z,86.95
2018-12-07T02:05:07.446Z,84.69
2018-12-07T02:07:36.044Z,82.44
2018-12-07T02:10:04.944Z,85.66
2018-12-07T02:12:33.363Z,87.81
2018-12-07T02:15:01.741Z,87.27
2018-12-07T02:17:29.740Z,86.20
2018-12-07T02:19:57.710Z,82.13
2018-12-07T02:22:25.694Z,85.86
2018-12-07T02:24:53.679Z,84.19
2018-12-07T02:27:21.867Z,79.65
2018-12-07T02:29:49.816Z,78.81
2018-12-07T02:32:17.934Z,82.51
2018-12-07T02:34:45.947Z,84.01
2018-12-07T02:37:14.089Z,82.31
2018-12-07T02:39:43.091Z,79.42
2018-12-07T02:42:11.778Z,75.51
2018-12-07T02:44:39.880Z,80.50
2018-12-07T02:47:07.814Z,79.19
2018-12-07T02:49:36.058Z,81.45
2018-12-07T02:52:04.178Z,78.28
2018-12-07T02:54:32.230Z,72.26
2018-12-07T02:57:00.468Z,78.50
2018-12-07T02:59:28.567Z,76.17
2018-12-07T03:01:56.502Z,73.16
2018-12-07T03:04:24.579Z,73.19
2018-12-07T03:06:52.508Z,74.30
2018-12-07T03:09:20.476Z,75.46
2018-12-07T03:11:48.404Z,77.22
2018-12-07T03:14:16.604Z,78.58
2018-12-07T03:16:44.673Z,81.86
2018-12-07T03:19:12.844Z,80.47
2018-12-07T03:21:40.813Z,81.68
2018-12-07T03:24:08.753Z,81.94
2018-12-07T03:26:36.822Z,82.35
2018-12-07T03:29:04.847Z,87.46
2018-12-07T03:31:32.919Z,84.70
2018-12-07T03:34:02.426Z,84.01
2018-12-07T03:36:30.561Z,84.88
2018-12-07T03:38:59.168Z,88.24
2018-12-07T03:41:27.241Z,86.34
2018-12-07T03:43:55.969Z,88.48
2018-12-07T03:46:24.229Z,89.22
2018-12-07T03:48:53.004Z,86.76
2018-12-07T03:51:21.244Z,88.60
2018-12-07T03:53:50.036Z,88.33
2018-12-07T03:56:18.867Z,86.79
2018-12-07T03:58:47.625Z,88.25
2018-12-07T04:01:15.580Z,87.42
2018-12-07T04:03:43.858Z,88.17
2018-12-07T04:06:11.974Z,89.07
2018-12-07T04:08:41.168Z,86.43
2018-12-07T04:11:09.385Z,87.31
2018-12-07T04:13:38.186Z,87.91
2018-12-07T04:16:08.143Z,86.89
2018-12-07T04:18:36.260Z,87.33
2018-12-07T04:21:04.760Z,87.11
2018-12-07T04:23:33.143Z,89.34
2018-12-07T04:26:01.069Z,91.04
2018-12-07T04:28:29.191Z,89.29
2018-12-07T04:30:58.117Z,87.09
2018-12-07T04:33:26.199Z,89.79
2018-12-07T04:35:55.209Z,92.03
2018-12-07T04:38:23.284Z,95.47
2018-12-07T04:40:51.446Z,96.29
2018-12-07T04:43:19.535Z,95.52
2018-12-07T04:45:47.663Z,96.77
2018-12-07T04:48:15.626Z,95.46
2018-12-07T04:50:43.725Z,94.70
2018-12-07T04:53:12.568Z,95.63
2018-12-07T04:55:40.872Z,95.78
2018-12-07T04:58:09.520Z,94.51
2018-12-07T05:00:37.560Z,92.40
2018-12-07T05:03:05.752Z,89.27
2018-12-07T05:05:33.634Z,89.38
2018-12-07T05:08:02.543Z,91.64
2018-12-07T05:10:30.944Z,85.89
2018-12-07T05:12:59.785Z,90.57
2018-12-07T05:15:27.928Z,87.63
2018-12-07T05:17:55.962Z,91.86
2018-12-07T05:20:23.845Z,89.03
2018-12-07T05:22:52.023Z,86.40
2018-12-07T05:25:25.921Z,82.47
2018-12-07T05:27:53.886Z,84.08
2018-12-07T05:30:21.835Z,82.23
2018-12-07T05:32:49.856Z,80.99
2018-12-07T05:35:17.919Z,82.10
2018-12-07T05:37:45.929Z,87.32
2018-12-07T05:40:16.643Z,89.80
2018-12-07T05:42:48.567Z,89.78
2018-12-07T05:45:17.802Z,92.83
2018-12-07T05:47:46.304Z,94.23
2018-12-07T05:50:14.213Z,92.47
2018-12-07T05:52:42.480Z,93.05
2018-12-07T05:55:10.509Z,92.83
2018-12-07T05:57:38.586Z,95.12
2018-12-07T06:00:07.746Z,95.06
2018-12-07T06:02:36.557Z,93.84
2018-12-07T06:05:05.643Z,92.06
2018-12-07T06:07:33.647Z,88.30
2018-12-07T06:10:01.785Z,87.30
2018-12-07T06:12:29.745Z,88.51
2018-12-07T06:14:57.734Z,90.01
2018-12-07T06:17:25.774Z,89.47
2018-12-07T06:19:54.190Z,84.64
2018-12-07T06:22:22.270Z,80.92
2018-12-07T06:24:50.627Z,83.52
2018-12-07T06:27:19.152Z,83.54
2018-12-07T06:29:47.547Z,82.69
2018-12-07T06:32:15.742Z,85.97
2018-12-07T06:34:43.877Z,84.83
2018-12-07T06:37:12.282Z,83.46
2018-12-07T06:39:40.386Z,82.26
2018-12-07T06:42:08.617Z,80.67
2018-12-07T06:44:36.584Z,81.41
2018-12-07T06:47:05.391Z,82.19
2018-12-07T06:49:33.589Z,83.34
2018-12-07T06:52:02.265Z,85.01
2018-12-07T06:54:30.459Z,84.73
2018-12-07T06:56:58.733Z,83.56
2018-12-07T06:59:27.476Z,87.98
2018-12-07T07:01:55.785Z,91.79
2018-12-07T07:04:23.952Z,93.70
2018-12-07T07:06:53.176Z,92.58
2018-12-07T07:09:21.535Z,93.07
2018-12-07T07:11:49.552Z,90.60
2018-12-07T07:14:17.843Z,86.99
2018-12-07T07:16:45.971Z,88.73
2018-12-07T07:19:15.519Z,86.18
2018-12-07T07:21:43.846Z,85.06
2018-12-07T07:24:12.843Z,83.26
2018-12-07T07:26:40.816Z,87.79
2018-12-07T07:29:09.782Z,89.44
2018-12-07T07:31:43.337Z,89.21
2018-12-07T07:34:07.892Z,87.45
2018-12-07T07:36:35.973Z,85.82
2018-12-07T07:39:06.275Z,81.63
2018-12-07T07:41:34.576Z,81.74
2018-12-07T07:44:02.611Z,80.80
2018-12-07T07:46:31.684Z,85.28
2018-12-07T07:49:00.220Z,79.11
2018-12-07T07:51:28.781Z,77.73
2018-12-07T07:53:57.122Z,80.65
2018-12-07T07:56:25.605Z,83.13
2018-12-07T07:58:53.664Z,81.99
2018-12-07T08:01:21.891Z,72.79
2018-12-07T08:03:49.937Z,72.87
2018-12-07T08:06:24.729Z,77.24
2018-12-07T08:08:52.667Z,75.06
2018-12-07T08:11:20.813Z,76.61
2018-12-07T08:13:49.517Z,72.58
2018-12-07T08:16:17.592Z,74.53
2018-12-07T08:18:46.127Z,73.55
2018-12-07T08:21:15.128Z,75.44
2018-12-07T08:24:10.946Z,75.59
2018-12-07T08:29:52.907Z,74.42
2018-12-07T08:32:20.988Z,78.92
2018-12-07T08:34:49.167Z,79.41
2018-12-07T08:37:17.196Z,72.10
2018-12-07T08:39:45.297Z,75.59
2018-12-07T08:42:18.193Z,74.00
2018-12-07T08:44:48.372Z,74.07
2018-12-07T08:47:17.486Z,73.67
2018-12-07T08:49:51.040Z,75.70
2018-12-07T08:52:19.003Z,75.09
2018-12-07T08:54:47.805Z,76.58
2018-12-07T08:57:16.120Z,76.08
2018-12-07T08:59:44.972Z,74.09
2018-12-07T09:02:14.003Z,75.58
2018-12-07T09:04:42.767Z,79.26
2018-12-07T09:07:10.720Z,75.17
2018-12-07T09:09:39.072Z,75.82
2018-12-07T09:12:07.910Z,73.34
2018-12-07T09:14:36.880Z,73.64
2018-12-07T09:17:07.477Z,70.85
2018-12-07T09:19:35.830Z,70.09
2018-12-07T09:22:04.226Z,70.65
2018-12-07T09:24:32.346Z,71.87
2018-12-07T09:27:01.179Z,71.63
2018-12-07T09:29:32.985Z,71.45
2018-12-07T09:34:40.972Z,69.49
2018-12-07T09:37:13.515Z,70.18
2018-12-07T09:39:41.774Z,70.34
2018-12-07T09:42:11.707Z,71.60
2018-12-07T09:44:40.493Z,70.65
2018-12-07T09:47:08.664Z,73.87
2018-12-07T09:49:40.958Z,74.79
2018-12-07T09:52:10.606Z,73.53
2018-12-07T09:54:39.909Z,71.38
2018-12-07T09:57:09.546Z,71.24
2018-12-07T09:59:37.558Z,71.55
2018-12-07T10:02:05.809Z,71.41
2018-12-07T10:04:36.832Z,71.21
2018-12-07T10:07:05.713Z,71.97
2018-12-07T10:09:34.001Z,70.74
2018-12-07T10:12:03.501Z,71.93
2018-12-07T10:14:32.575Z,70.72
2018-12-07T10:17:00.717Z,69.99
2018-12-07T10:19:28.983Z,69.52
2018-12-07T10:22:00.644Z,65.80
2018-12-07T10:24:28.636Z,64.83
2018-12-07T10:27:08.164Z,64.29
2018-12-07T10:32:02.937Z,64.71
2018-12-07T10:34:32.103Z,64.67
2018-12-07T10:37:00.326Z,64.43
2018-12-07T10:39:28.518Z,63.22
2018-12-07T10:42:00.425Z,63.85
2018-12-07T10:44:29.319Z,64.92
2018-12-07T10:46:57.833Z,63.43
2018-12-07T10:49:26.779Z,62.04
2018-12-07T10:51:54.903Z,61.80
2018-12-07T10:54:23.635Z,63.35
2018-12-07T10:56:51.950Z,57.33
2018-12-07T10:59:19.959Z,57.76
2018-12-07T11:01:55.625Z,58.19
2018-12-07T11:04:29.578Z,57.71
2018-12-07T11:07:05.095Z,54.62
2018-12-07T11:09:38.939Z,55.55
2018-12-07T11:12:15.817Z,59.00
2018-12-07T11:14:52.102Z,57.07
2018-12-07T11:17:27.681Z,57.49
2018-12-07T11:20:02.044Z,55.38
2018-12-07T11:24:39.072Z,55.22
2018-12-07T11:29:15.813Z,57.30
2018-12-07T11:31:49.280Z,55.70
2018-12-07T11:34:25.468Z,57.66
2018-12-07T11:36:59.936Z,59.46
2018-12-07T11:39:28.227Z,57.79
2018-12-07T11:41:56.515Z,55.90
2018-12-07T11:44:32.133Z,52.78
2018-12-07T11:47:00.142Z,54.30
2018-12-07T11:49:30.389Z,56.06
2018-12-07T11:51:59.569Z,56.52
2018-12-07T11:54:28.913Z,56.37
2018-12-07T11:56:57.790Z,57.67
2018-12-07T11:59:26.301Z,62.12
2018-12-07T12:01:57.321Z,58.26
2018-12-07T12:07:04.877Z,54.07
2018-12-07T12:09:33.456Z,52.47
2018-12-07T12:12:06.689Z,53.22
2018-12-07T12:14:35.014Z,53.69
2018-12-07T12:17:05.031Z,53.94
2018-12-07T12:20:13.149Z,52.76
2018-12-07T12:22:42.741Z,52.93
2018-12-07T12:25:11.077Z,53.65
2018-12-07T12:27:39.591Z,53.27
2018-12-07T12:30:10.988Z,54.64
2018-12-07T12:32:39.257Z,56.26
2018-12-07T12:35:07.844Z,56.40
2018-12-07T12:37:36.878Z,56.18
2018-12-07T12:40:05.518Z,56.37
2018-12-07T12:42:35.112Z,56.53
2018-12-07T12:45:03.315Z,57.21
2018-12-07T12:47:32.169Z,55.64
2018-12-07T12:50:00.091Z,55.87
2018-12-07T12:52:28.100Z,54.52
2018-12-07T12:54:56.189Z,54.41
2018-12-07T12:57:24.303Z,54.19
2018-12-07T12:59:52.399Z,54.28
2018-12-07T13:02:20.399Z,53.97
2018-12-07T13:04:48.539Z,54.31
2018-12-07T13:07:16.492Z,55.47
2018-12-07T13:09:44.528Z,54.87
2018-12-07T13:12:12.594Z,55.13
2018-12-07T13:14:44.856Z,56.04
2018-12-07T13:17:14.018Z,55.75
2018-12-07T13:19:45.317Z,55.20
2018-12-07T13:22:17.162Z,55.85
2018-12-07T13:24:45.327Z,55.47
2018-12-07T13:27:13.457Z,55.87
2018-12-07T13:29:41.520Z,55.81
2018-12-07T13:32:10.303Z,55.37
2018-12-07T13:34:38.392Z,55.52
2018-12-07T13:37:06.568Z,54.27
2018-12-07T13:39:34.766Z,54.90
2018-12-07T13:42:03.664Z,53.93
2018-12-07T13:44:32.598Z,53.96
2018-12-07T13:47:04.096Z,52.49
2018-12-07T13:49:33.439Z,51.97
2018-12-07T13:52:01.867Z,52.10
2018-12-07T13:54:30.202Z,51.79
2018-12-07T13:56:58.619Z,51.76
2018-12-07T13:59:26.931Z,54.71
2018-12-07T14:01:55.235Z,53.50
2018-12-07T14:04:23.413Z,52.86
2018-12-07T14:06:52.273Z,52.44
2018-12-07T14:09:20.711Z,52.23
2018-12-07T14:11:49.243Z,51.81
2018-12-07T14:14:18.948Z,52.87
2018-12-07T14:16:47.290Z,52.45
2018-12-07T14:19:16.388Z,53.06
2018-12-07T14:21:54.843Z,54.07
2018-12-07T14:24:23.410Z,55.02
2018-12-07T14:26:59.523Z,56.23
2018-12-07T14:29:23.782Z,54.77
2018-12-07T14:31:52.083Z,56.47
2018-12-07T14:34:20.290Z,54.40
2018-12-07T14:36:49.016Z,57.90
2018-12-07T14:39:18.298Z,56.79
2018-12-07T14:41:48.273Z,55.88
2018-12-07T14:44:17.773Z,56.01
2018-12-07T14:46:47.549Z,56.61
2018-12-07T14:49:16.377Z,57.75
2018-12-07T14:51:45.291Z,58.76
2018-12-07T14:54:13.931Z,59.43
2018-12-07T14:56:41.999Z,60.60
2018-12-07T14:59:15.184Z,61.37
2018-12-07T15:01:45.458Z,62.03
2018-12-07T15:04:14.405Z,62.77
2018-12-07T15:06:43.630Z,63.09
2018-12-07T15:09:12.393Z,63.53
2018-12-07T15:11:41.874Z,64.08
2018-12-07T15:14:10.568Z,64.30
2018-12-07T15:16:38.748Z,64.30
2018-12-07T15:19:09.612Z,65.07
2018-12-07T15:21:37.889Z,65.92
2018-12-07T15:24:05.878Z,65.87
2018-12-07T15:26:34.004Z,66.29
2018-12-07T15:29:03.981Z,65.90
2018-12-07T15:31:32.574Z,66.66
2018-12-07T15:34:00.830Z,66.96
2018-12-07T15:36:28.950Z,66.89
2018-12-07T15:38:57.180Z,67.55
2018-12-07T15:41:25.280Z,68.21
2018-12-07T15:43:53.433Z,68.80
2018-12-07T15:46:22.868Z,69.51
2018-12-07T15:48:51.371Z,69.75
2018-12-07T15:51:20.209Z,70.19
2018-12-07T15:53:48.541Z,70.55
2018-12-07T15:56:16.852Z,70.87
2018-12-07T15:58:51.266Z,71.52
2018-12-07T16:01:19.577Z,71.57
2018-12-07T16:03:47.883Z,71.67
2018-12-07T16:06:16.284Z,71.85
2018-12-07T16:08:44.715Z,73.36
2018-12-07T16:11:14.818Z,73.49
2018-12-07T16:13:43.084Z,73.59
2018-12-07T16:16:11.206Z,74.81
2018-12-07T16:18:39.270Z,76.65
2018-12-07T16:21:07.702Z,75.11
2018-12-07T16:23:36.566Z,73.24
2018-12-07T16:26:04.771Z,73.19
2018-12-07T16:28:33.320Z,73.66
2018-12-07T16:31:01.600Z,74.22
2018-12-07T16:33:32.702Z,75.57
2018-12-07T16:36:01.186Z,75.39
2018-12-07T16:38:29.552Z,73.00
2018-12-07T16:40:57.881Z,73.91
2018-12-07T16:43:26.091Z,71.42
2018-12-07T16:45:54.947Z,71.69
2018-12-07T16:48:23.061Z,70.42
2018-12-07T16:50:51.965Z,70.13
2018-12-07T16:53:22.261Z,73.19
2018-12-07T16:55:51.869Z,74.71
2018-12-07T16:58:20.083Z,71.13
2018-12-07T17:00:52.260Z,69.11
2018-12-07T17:03:20.899Z,67.47
2018-12-07T17:05:50.768Z,67.97
2018-12-07T17:08:19.112Z,69.95
2018-12-07T17:10:47.529Z,74.25
2018-12-07T17:13:15.784Z,69.16
2018-12-07T17:15:45.128Z,74.33
2018-12-07T17:18:13.551Z,70.50
2018-12-07T17:20:41.805Z,68.66
2018-12-07T17:23:10.199Z,68.95
2018-12-07T17:25:38.439Z,68.71
2018-12-07T17:28:06.654Z,68.96
2018-12-07T17:30:34.924Z,69.14
2018-12-07T17:33:05.666Z,69.83
2018-12-07T17:35:35.433Z,75.98
2018-12-07T17:38:03.922Z,73.44
2018-12-07T17:40:32.343Z,71.04
2018-12-07T17:43:00.586Z,72.11
2018-12-07T17:45:28.999Z,70.16
2018-12-07T17:47:58.487Z,69.75
2018-12-07T17:50:28.844Z,70.91
2018-12-07T17:52:57.135Z,70.78
2018-12-07T17:55:25.713Z,72.56
2018-12-07T17:57:53.959Z,71.17
2018-12-07T18:00:22.177Z,71.64
2018-12-07T18:02:50.487Z,76.50
2018-12-07T18:05:18.770Z,72.49
2018-12-07T18:07:47.104Z,72.32
2018-12-07T18:10:15.229Z,72.46
2018-12-07T18:12:45.925Z,76.47
2018-12-07T18:15:15.283Z,77.63
2018-12-07T18:17:44.837Z,73.35
2018-12-07T18:20:13.786Z,73.37
2018-12-07T18:22:42.384Z,74.21
2018-12-07T18:25:11.078Z,75.13
2018-12-07T18:27:39.751Z,75.50
2018-12-07T18:30:07.967Z,76.14
2018-12-07T18:32:36.220Z,76.99
2018-12-07T18:35:04.510Z,77.58
2018-12-07T18:37:32.635Z,77.51
2018-12-07T18:40:00.990Z,79.14
2018-12-07T18:42:29.270Z,79.77
2018-12-07T18:44:57.333Z,79.14
2018-12-07T18:47:25.651Z,79.95
2018-12-07T18:49:55.776Z,79.29
2018-12-07T18:52:24.281Z,77.05
2018-12-07T18:54:52.453Z,76.51
2018-12-07T18:57:20.860Z,77.14
2018-12-07T18:59:48.915Z,77.31
2018-12-07T19:02:17.014Z,78.80
2018-12-07T19:04:45.360Z,78.02
2018-12-07T19:07:13.683Z,79.34
2018-12-07T19:09:41.768Z,78.72
2018-12-07T19:12:10.049Z,78.08
2018-12-07T19:14:38.455Z,77.33
2018-12-07T19:17:06.637Z,77.18
2018-12-07T19:19:35.063Z,77.78
2018-12-07T19:22:03.543Z,81.13
2018-12-07T19:24:33.451Z,80.70
2018-12-07T19:27:02.123Z,80.85
2018-12-07T19:29:30.195Z,79.73
2018-12-07T19:31:59.216Z,76.78
2018-12-07T19:34:27.913Z,76.09
2018-12-07T19:36:56.289Z,74.53
2018-12-07T19:39:24.815Z,71.89
2018-12-07T19:41:54.080Z,68.74
2018-12-07T19:44:23.534Z,68.24
2018-12-07T19:46:53.114Z,67.15
2018-12-07T19:49:21.278Z,68.12
2018-12-07T19:52:52.971Z,62.82
2018-12-07T19:55:22.065Z,67.61
2018-12-07T19:57:50.478Z,63.33
2018-12-07T20:00:19.284Z,74.17
2018-12-07T20:02:47.995Z,65.07
2018-12-07T20:05:16.680Z,65.38
2018-12-07T20:07:45.310Z,68.24
2018-12-07T20:10:13.777Z,67.60
2018-12-07T20:12:42.234Z,67.64
2018-12-07T20:15:10.681Z,67.81
2018-12-07T20:17:38.987Z,68.58
2018-12-07T20:20:07.961Z,68.98
2018-12-07T20:22:36.331Z,71.34
2018-12-07T20:25:05.141Z,71.62
2018-12-07T20:27:33.615Z,71.41
2018-12-07T20:30:02.195Z,75.63
2018-12-07T20:32:30.495Z,75.09
2018-12-07T20:35:09.750Z,72.12
2018-12-07T20:37:47.215Z,70.28
2018-12-07T20:42:39.815Z,70.09
2018-12-07T20:45:17.676Z,69.16
2018-12-07T20:48:08.524Z,69.84
2018-12-07T20:50:59.282Z,72.04
2018-12-07T21:08:02.474Z,75.42
2018-12-07T21:10:55.677Z,75.01
2018-12-07T21:13:43.796Z,71.35
2018-12-07T21:16:38.088Z,71.25
2018-12-07T21:19:23.573Z,74.16
2018-12-07T21:22:12.952Z,72.82
2018-12-07T21:24:41.953Z,72.73
2018-12-07T21:27:27.362Z,70.03
2018-12-07T21:30:55.455Z,69.19
2018-12-07T21:33:47.876Z,71.83
2018-12-07T21:36:48.524Z,73.50
2018-12-07T21:39:40.924Z,77.65
2018-12-07T21:42:30.364Z,76.45
2018-12-07T21:45:01.936Z,80.22
2018-12-07T21:48:53.373Z,81.01
2018-12-07T21:51:39.643Z,75.36
2018-12-07T21:54:08.201Z,79.83
2018-12-07T21:56:38.415Z,78.06
2018-12-07T21:59:07.000Z,82.11
2018-12-07T22:01:35.578Z,80.38
2018-12-07T22:04:11.570Z,83.95
2018-12-07T22:06:52.628Z,83.12
2018-12-07T22:09:22.689Z,77.43
2018-12-07T22:11:58.968Z,79.30
2018-12-07T22:14:40.017Z,79.84
2018-12-07T22:17:24.741Z,77.43
2018-12-07T22:19:53.450Z,76.66
2018-12-07T22:22:21.732Z,80.55
2018-12-07T22:24:50.003Z,79.93
2018-12-07T22:27:32.429Z,85.09
2018-12-07T22:30:10.131Z,79.83
2018-12-07T22:32:59.667Z,79.84
2018-12-07T22:35:43.702Z,80.22
2018-12-07T22:38:29.337Z,83.10
2018-12-07T22:41:14.737Z,86.27
2018-12-07T22:43:58.613Z,82.18
2018-12-07T22:46:48.920Z,80.78
2018-12-07T22:49:30.120Z,78.81
2018-12-07T22:52:18.961Z,77.34
2018-12-07T22:54:54.280Z,78.76
2018-12-07T22:57:22.515Z,79.42
2018-12-07T23:00:05.379Z,78.62
2018-12-07T23:02:49.998Z,81.22
2018-12-07T23:05:31.910Z,76.51
2018-12-07T23:08:16.791Z,72.87
2018-12-07T23:10:53.736Z,75.68
2018-12-07T23:13:35.640Z,73.57
2018-12-07T23:16:33.801Z,77.28
2018-12-07T23:19:17.280Z,79.21
2018-12-07T23:21:52.671Z,79.33
2018-12-07T23:24:38.013Z,81.90
2018-12-07T23:27:14.215Z,76.92
2018-12-07T23:29:59.653Z,73.69
2018-12-07T23:32:41.018Z,73.31
2018-12-07T23:35:30.315Z,76.41
2018-12-07T23:37:58.629Z,79.37
2018-12-07T23:40:34.732Z,74.56
2018-12-07T23:43:23.602Z,72.44
2018-12-07T23:46:06.907Z,73.63
2018-12-07T23:48:38.367Z,76.77
2018-12-07T23:51:30.251Z,79.35
2018-12-07T23:54:11.355Z,84.17
2018-12-07T23:56:48.477Z,80.14
2018-12-07T23:59:16.982Z,77.27
